sensor_id;sensor_type;location;lat;lon;timestamp;temperature;humidity
22471;DHT22;11402;51.374;6.594;2022-09-21T00:01:21;10.00;99.90
22471;DHT22;11402;51.374;6.594;2022-09-21T00:03:54;9.90;99.90
22471;DHT22;11402;51.374;6.594;2022-09-21T00:21:12;9.60;99.90
22471;DHT22;11402;51.374;6.594;2022-09-21T00:23:38;9.80;99.90
22471;DHT22;11402;51.374;6.594;2022-09-21T00:26:23;9.80;99.90
22471;DHT22;11402;51.374;6.594;2022-09-21T00:36:14;9.60;99.90
22471;DHT22;11402;51.374;6.594;2022-09-21T00:38:44;9.80;99.90
22471;DHT22;11402;51.374;6.594;2022-09-21T00:41:11;9.70;99.90
22471;DHT22;11402;51.374;6.594;2022-09-21T00:43:44;9.60;99.90
22471;DHT22;11402;51.374;6.594;2022-09-21T00:46:31;9.70;99.90
22471;DHT22;11402;51.374;6.594;2022-09-21T00:51:24;9.50;99.90
22471;DHT22;11402;51.374;6.594;2022-09-21T00:54:06;9.60;99.90
22471;DHT22;11402;51.374;6.594;2022-09-21T00:56:34;9.70;99.90
22471;DHT22;11402;51.374;6.594;2022-09-21T00:59:01;9.80;99.90
22471;DHT22;11402;51.374;6.594;2022-09-21T01:01:27;9.80;99.90
22471;DHT22;11402;51.374;6.594;2022-09-21T01:03:53;9.70;99.90
22471;DHT22;11402;51.374;6.594;2022-09-21T01:06:21;9.80;99.90
22471;DHT22;11402;51.374;6.594;2022-09-21T01:08:50;9.80;99.90
22471;DHT22;11402;51.374;6.594;2022-09-21T01:11:52;9.80;99.90
22471;DHT22;11402;51.374;6.594;2022-09-21T01:14:52;9.90;99.90
22471;DHT22;11402;51.374;6.594;2022-09-21T01:18:23;9.80;99.90
22471;DHT22;11402;51.374;6.594;2022-09-21T01:23:12;9.70;99.90
22471;DHT22;11402;51.374;6.594;2022-09-21T01:26:04;9.60;99.90
22471;DHT22;11402;51.374;6.594;2022-09-21T01:31:10;9.70;99.90
22471;DHT22;11402;51.374;6.594;2022-09-21T01:33:47;9.70;99.90
22471;DHT22;11402;51.374;6.594;2022-09-21T01:36:16;9.70;99.90
22471;DHT22;11402;51.374;6.594;2022-09-21T01:39:02;9.60;99.90
22471;DHT22;11402;51.374;6.594;2022-09-21T01:41:31;9.80;99.90
22471;DHT22;11402;51.374;6.594;2022-09-21T01:44:03;9.70;99.90
22471;DHT22;11402;51.374;6.594;2022-09-21T01:46:33;9.80;99.90
22471;DHT22;11402;51.374;6.594;2022-09-21T01:49:05;9.80;99.90
22471;DHT22;11402;51.374;6.594;2022-09-21T01:51:34;9.80;99.90
22471;DHT22;11402;51.374;6.594;2022-09-21T01:54:10;9.90;99.90
22471;DHT22;11402;51.374;6.594;2022-09-21T01:56:53;9.90;99.90
22471;DHT22;11402;51.374;6.594;2022-09-21T01:59:49;9.70;99.90
22471;DHT22;11402;51.374;6.594;2022-09-21T02:03:20;9.70;99.90
22471;DHT22;11402;51.374;6.594;2022-09-21T02:05:28;9.80;99.90
22471;DHT22;11402;51.374;6.594;2022-09-21T02:07:54;9.90;99.90
22471;DHT22;11402;51.374;6.594;2022-09-21T02:10:28;9.80;99.90
22471;DHT22;11402;51.374;6.594;2022-09-21T02:12:57;9.90;99.90
22471;DHT22;11402;51.374;6.594;2022-09-21T02:15:36;9.80;99.90
22471;DHT22;11402;51.374;6.594;2022-09-21T02:18:14;9.80;99.90
22471;DHT22;11402;51.374;6.594;2022-09-21T02:20:49;9.80;99.90
22471;DHT22;11402;51.374;6.594;2022-09-21T02:23:36;9.80;99.90
22471;DHT22;11402;51.374;6.594;2022-09-21T02:26:10;9.80;99.90
22471;DHT22;11402;51.374;6.594;2022-09-21T02:28:55;9.80;99.90
22471;DHT22;11402;51.374;6.594;2022-09-21T02:31:41;9.70;99.90
22471;DHT22;11402;51.374;6.594;2022-09-21T02:34:39;9.70;99.90
22471;DHT22;11402;51.374;6.594;2022-09-21T02:37:36;9.50;99.90
22471;DHT22;11402;51.374;6.594;2022-09-21T02:40:28;9.50;99.90
22471;DHT22;11402;51.374;6.594;2022-09-21T02:43:01;9.70;99.90
22471;DHT22;11402;51.374;6.594;2022-09-21T02:45:31;9.70;99.90
22471;DHT22;11402;51.374;6.594;2022-09-21T02:48:04;9.50;99.90
22471;DHT22;11402;51.374;6.594;2022-09-21T02:50:56;9.50;99.90
22471;DHT22;11402;51.374;6.594;2022-09-21T02:53:28;9.40;99.90
22471;DHT22;11402;51.374;6.594;2022-09-21T02:55:57;9.30;99.90
22471;DHT22;11402;51.374;6.594;2022-09-21T02:58:25;9.40;99.90
22471;DHT22;11402;51.374;6.594;2022-09-21T03:00:54;9.50;99.90
22471;DHT22;11402;51.374;6.594;2022-09-21T03:03:22;9.40;99.90
22471;DHT22;11402;51.374;6.594;2022-09-21T03:05:51;9.40;99.90
22471;DHT22;11402;51.374;6.594;2022-09-21T03:08:17;9.50;99.90
22471;DHT22;11402;51.374;6.594;2022-09-21T03:10:43;9.60;99.90
22471;DHT22;11402;51.374;6.594;2022-09-21T03:13:10;9.60;99.90
22471;DHT22;11402;51.374;6.594;2022-09-21T03:15:37;9.70;99.90
22471;DHT22;11402;51.374;6.594;2022-09-21T03:18:04;9.60;99.90
22471;DHT22;11402;51.374;6.594;2022-09-21T03:20:33;9.60;99.90
22471;DHT22;11402;51.374;6.594;2022-09-21T03:22:59;9.50;99.90
22471;DHT22;11402;51.374;6.594;2022-09-21T03:25:26;9.50;99.90
22471;DHT22;11402;51.374;6.594;2022-09-21T03:27:52;9.40;99.90
22471;DHT22;11402;51.374;6.594;2022-09-21T03:30:22;9.30;99.90
22471;DHT22;11402;51.374;6.594;2022-09-21T03:32:49;9.40;99.90
22471;DHT22;11402;51.374;6.594;2022-09-21T03:35:16;9.30;99.90
22471;DHT22;11402;51.374;6.594;2022-09-21T03:37:42;9.20;99.90
22471;DHT22;11402;51.374;6.594;2022-09-21T03:40:08;9.10;99.90
22471;DHT22;11402;51.374;6.594;2022-09-21T03:42:34;9.20;99.90
22471;DHT22;11402;51.374;6.594;2022-09-21T03:45:00;9.20;99.90
22471;DHT22;11402;51.374;6.594;2022-09-21T03:47:25;9.10;99.90
22471;DHT22;11402;51.374;6.594;2022-09-21T03:49:53;9.20;99.90
22471;DHT22;11402;51.374;6.594;2022-09-21T03:52:19;9.10;99.90
22471;DHT22;11402;51.374;6.594;2022-09-21T03:54:44;9.10;99.90
22471;DHT22;11402;51.374;6.594;2022-09-21T03:59:37;8.60;99.90
22471;DHT22;11402;51.374;6.594;2022-09-21T04:02:02;8.40;99.90
22471;DHT22;11402;51.374;6.594;2022-09-21T04:28:56;8.50;99.90
22471;DHT22;11402;51.374;6.594;2022-09-21T04:33:50;8.50;99.90
22471;DHT22;11402;51.374;6.594;2022-09-21T04:36:20;8.70;99.90
22471;DHT22;11402;51.374;6.594;2022-09-21T04:41:12;8.50;99.90
22471;DHT22;11402;51.374;6.594;2022-09-21T05:10:42;8.50;99.90
22471;DHT22;11402;51.374;6.594;2022-09-21T05:13:08;8.50;99.90
22471;DHT22;11402;51.374;6.594;2022-09-21T05:15:36;8.60;99.90
22471;DHT22;11402;51.374;6.594;2022-09-21T05:20:30;8.20;99.90
22471;DHT22;11402;51.374;6.594;2022-09-21T05:22:59;8.50;99.90
22471;DHT22;11402;51.374;6.594;2022-09-21T05:25:26;8.50;99.90
22471;DHT22;11402;51.374;6.594;2022-09-21T05:27:51;8.50;99.90
22471;DHT22;11402;51.374;6.594;2022-09-21T05:30:17;8.60;99.90
22471;DHT22;11402;51.374;6.594;2022-09-21T05:35:47;8.00;99.90
22471;DHT22;11402;51.374;6.594;2022-09-21T05:38:19;8.40;99.90
22471;DHT22;11402;51.374;6.594;2022-09-21T05:40:45;8.50;99.90
22471;DHT22;11402;51.374;6.594;2022-09-21T05:43:15;8.50;99.90
22471;DHT22;11402;51.374;6.594;2022-09-21T05:48:29;8.50;99.90
22471;DHT22;11402;51.374;6.594;2022-09-21T06:04:26;8.80;99.90
22471;DHT22;11402;51.374;6.594;2022-09-21T06:06:51;9.00;99.90
22471;DHT22;11402;51.374;6.594;2022-09-21T06:09:17;9.10;99.90
22471;DHT22;11402;51.374;6.594;2022-09-21T06:11:47;9.20;99.90
22471;DHT22;11402;51.374;6.594;2022-09-21T06:14:12;9.20;99.90
22471;DHT22;11402;51.374;6.594;2022-09-21T06:16:42;9.30;99.90
22471;DHT22;11402;51.374;6.594;2022-09-21T06:19:13;9.40;99.90
22471;DHT22;11402;51.374;6.594;2022-09-21T06:21:39;9.60;99.90
22471;DHT22;11402;51.374;6.594;2022-09-21T06:24:05;9.70;99.90
22471;DHT22;11402;51.374;6.594;2022-09-21T06:26:31;9.80;99.90
22471;DHT22;11402;51.374;6.594;2022-09-21T06:28:57;9.90;99.90
22471;DHT22;11402;51.374;6.594;2022-09-21T06:31:22;10.00;99.90
22471;DHT22;11402;51.374;6.594;2022-09-21T06:33:48;10.20;99.90
22471;DHT22;11402;51.374;6.594;2022-09-21T06:36:14;10.20;99.90
22471;DHT22;11402;51.374;6.594;2022-09-21T06:38:42;10.30;99.90
22471;DHT22;11402;51.374;6.594;2022-09-21T06:41:07;10.50;99.90
22471;DHT22;11402;51.374;6.594;2022-09-21T06:43:33;10.60;99.90
22471;DHT22;11402;51.374;6.594;2022-09-21T06:53:29;10.70;99.90
22471;DHT22;11402;51.374;6.594;2022-09-21T06:58:36;10.80;99.90
22471;DHT22;11402;51.374;6.594;2022-09-21T07:01:04;11.20;99.90
22471;DHT22;11402;51.374;6.594;2022-09-21T07:08:25;11.30;99.90
22471;DHT22;11402;51.374;6.594;2022-09-21T07:10:51;11.60;99.90
22471;DHT22;11402;51.374;6.594;2022-09-21T07:13:17;11.60;99.90
22471;DHT22;11402;51.374;6.594;2022-09-21T07:15:43;11.40;99.90
22471;DHT22;11402;51.374;6.594;2022-09-21T07:18:12;11.40;99.90
22471;DHT22;11402;51.374;6.594;2022-09-21T07:20:38;11.50;99.90
22471;DHT22;11402;51.374;6.594;2022-09-21T07:25:43;11.50;99.90
22471;DHT22;11402;51.374;6.594;2022-09-21T07:28:11;11.60;99.90
22471;DHT22;11402;51.374;6.594;2022-09-21T07:30:38;11.50;99.90
22471;DHT22;11402;51.374;6.594;2022-09-21T07:35:31;11.80;99.90
22471;DHT22;11402;51.374;6.594;2022-09-21T07:37:58;11.70;99.90
22471;DHT22;11402;51.374;6.594;2022-09-21T07:45:17;11.90;99.90
22471;DHT22;11402;51.374;6.594;2022-09-21T08:02:45;12.50;99.90
22471;DHT22;11402;51.374;6.594;2022-09-21T08:05:11;12.40;99.90
22471;DHT22;11402;51.374;6.594;2022-09-21T08:07:36;12.20;99.90
22471;DHT22;11402;51.374;6.594;2022-09-21T08:12:28;12.40;99.90
22471;DHT22;11402;51.374;6.594;2022-09-21T08:14:54;12.50;99.90
22471;DHT22;11402;51.374;6.594;2022-09-21T08:27:05;12.80;99.90
22471;DHT22;11402;51.374;6.594;2022-09-21T08:39:19;13.30;99.90
22471;DHT22;11402;51.374;6.594;2022-09-21T08:44:30;13.40;99.90
22471;DHT22;11402;51.374;6.594;2022-09-21T08:49:30;13.90;99.90
22471;DHT22;11402;51.374;6.594;2022-09-21T08:54:59;13.40;99.90
22471;DHT22;11402;51.374;6.594;2022-09-21T08:59:58;13.70;99.90
22471;DHT22;11402;51.374;6.594;2022-09-21T09:02:38;13.60;99.90
22471;DHT22;11402;51.374;6.594;2022-09-21T09:05:23;13.60;99.90
22471;DHT22;11402;51.374;6.594;2022-09-21T09:15:36;14.50;99.90
22471;DHT22;11402;51.374;6.594;2022-09-21T09:18:32;14.00;99.90
22471;DHT22;11402;51.374;6.594;2022-09-21T09:21:04;14.10;99.90
22471;DHT22;11402;51.374;6.594;2022-09-21T09:23:37;14.20;99.90
22471;DHT22;11402;51.374;6.594;2022-09-21T09:26:11;14.20;99.90
22471;DHT22;11402;51.374;6.594;2022-09-21T09:28:44;14.20;99.90
22471;DHT22;11402;51.374;6.594;2022-09-21T09:36:29;14.20;99.90
22471;DHT22;11402;51.374;6.594;2022-09-21T09:39:00;14.40;99.90
22471;DHT22;11402;51.374;6.594;2022-09-21T09:44:32;14.60;99.90
22471;DHT22;11402;51.374;6.594;2022-09-21T09:47:18;14.50;99.90
22471;DHT22;11402;51.374;6.594;2022-09-21T09:50:01;14.50;99.90
22471;DHT22;11402;51.374;6.594;2022-09-21T09:55:00;14.50;99.90
22471;DHT22;11402;51.374;6.594;2022-09-21T10:00:06;14.60;99.90
22471;DHT22;11402;51.374;6.594;2022-09-21T10:05:20;14.80;99.90
22471;DHT22;11402;51.374;6.594;2022-09-21T10:07:48;14.70;99.90
22471;DHT22;11402;51.374;6.594;2022-09-21T10:12:48;15.10;99.90
22471;DHT22;11402;51.374;6.594;2022-09-21T10:15:16;14.90;99.90
22471;DHT22;11402;51.374;6.594;2022-09-21T10:22:48;15.30;99.90
22471;DHT22;11402;51.374;6.594;2022-09-21T10:25:18;15.30;99.90
22471;DHT22;11402;51.374;6.594;2022-09-21T10:27:48;15.40;99.90
22471;DHT22;11402;51.374;6.594;2022-09-21T10:32:56;15.50;99.90
22471;DHT22;11402;51.374;6.594;2022-09-21T10:35:23;15.50;99.90
22471;DHT22;11402;51.374;6.594;2022-09-21T10:38:09;15.70;99.90
22471;DHT22;11402;51.374;6.594;2022-09-21T10:40:36;15.80;99.90
22471;DHT22;11402;51.374;6.594;2022-09-21T10:45:33;16.00;99.90
22471;DHT22;11402;51.374;6.594;2022-09-21T10:50:36;15.90;99.90
22471;DHT22;11402;51.374;6.594;2022-09-21T12:31:28;16.20;99.90
22471;DHT22;11402;51.374;6.594;2022-09-21T12:34:09;16.20;99.90
22471;DHT22;11402;51.374;6.594;2022-09-21T12:36:41;16.30;99.90
22471;DHT22;11402;51.374;6.594;2022-09-21T12:39:27;16.20;99.90
22471;DHT22;11402;51.374;6.594;2022-09-21T12:42:00;16.30;99.90
22471;DHT22;11402;51.374;6.594;2022-09-21T12:45:03;16.20;99.90
22471;DHT22;11402;51.374;6.594;2022-09-21T12:47:52;16.50;99.90
22471;DHT22;11402;51.374;6.594;2022-09-21T12:50:41;16.40;99.90
22471;DHT22;11402;51.374;6.594;2022-09-21T12:53:18;16.60;99.90
22471;DHT22;11402;51.374;6.594;2022-09-21T13:04:13;16.90;99.90
22471;DHT22;11402;51.374;6.594;2022-09-21T13:09:19;16.90;99.90
22471;DHT22;11402;51.374;6.594;2022-09-21T14:29:27;16.60;99.90
22471;DHT22;11402;51.374;6.594;2022-09-21T14:31:58;16.60;99.90
22471;DHT22;11402;51.374;6.594;2022-09-21T14:34:33;16.60;99.90
22471;DHT22;11402;51.374;6.594;2022-09-21T14:37:03;16.80;99.90
22471;DHT22;11402;51.374;6.594;2022-09-21T14:39:31;16.80;99.90
22471;DHT22;11402;51.374;6.594;2022-09-21T14:42:02;16.60;99.90
22471;DHT22;11402;51.374;6.594;2022-09-21T14:44:30;16.70;99.90
22471;DHT22;11402;51.374;6.594;2022-09-21T14:47:19;16.70;99.90
22471;DHT22;11402;51.374;6.594;2022-09-21T14:50:20;16.80;99.90
22471;DHT22;11402;51.374;6.594;2022-09-21T15:01:37;17.00;99.90
22471;DHT22;11402;51.374;6.594;2022-09-21T15:10:17;17.00;99.90
22471;DHT22;11402;51.374;6.594;2022-09-21T15:15:57;16.90;99.90
22471;DHT22;11402;51.374;6.594;2022-09-21T15:18:24;17.00;99.90
22471;DHT22;11402;51.374;6.594;2022-09-21T15:20:55;17.00;99.90
22471;DHT22;11402;51.374;6.594;2022-09-21T15:23:26;17.10;99.90
22471;DHT22;11402;51.374;6.594;2022-09-21T15:25:56;17.10;99.90
22471;DHT22;11402;51.374;6.594;2022-09-21T15:28:24;16.90;99.90
22471;DHT22;11402;51.374;6.594;2022-09-21T15:30:55;17.00;99.90
22471;DHT22;11402;51.374;6.594;2022-09-21T15:33:22;17.00;99.90
22471;DHT22;11402;51.374;6.594;2022-09-21T15:35:48;16.90;99.90
22471;DHT22;11402;51.374;6.594;2022-09-21T15:38:28;17.00;99.90
22471;DHT22;11402;51.374;6.594;2022-09-21T15:40:54;17.20;99.90
22471;DHT22;11402;51.374;6.594;2022-09-21T15:43:20;17.00;99.90
22471;DHT22;11402;51.374;6.594;2022-09-21T15:45:53;16.80;99.90
22471;DHT22;11402;51.374;6.594;2022-09-21T15:53:28;16.30;99.90
22471;DHT22;11402;51.374;6.594;2022-09-21T16:27:12;16.30;99.90
22471;DHT22;11402;51.374;6.594;2022-09-21T16:29:41;16.20;99.90
22471;DHT22;11402;51.374;6.594;2022-09-21T16:49:50;15.80;99.90
22471;DHT22;11402;51.374;6.594;2022-09-21T16:52:18;15.70;99.90
22471;DHT22;11402;51.374;6.594;2022-09-21T16:54:43;15.90;99.90
22471;DHT22;11402;51.374;6.594;2022-09-21T16:57:11;15.90;99.90
22471;DHT22;11402;51.374;6.594;2022-09-21T16:59:38;15.90;99.90
22471;DHT22;11402;51.374;6.594;2022-09-21T17:02:04;15.80;99.90
22471;DHT22;11402;51.374;6.594;2022-09-21T17:04:32;15.70;99.90
22471;DHT22;11402;51.374;6.594;2022-09-21T17:06:58;15.60;99.90
22471;DHT22;11402;51.374;6.594;2022-09-21T17:09:31;15.60;99.90
22471;DHT22;11402;51.374;6.594;2022-09-21T17:11:59;15.60;99.90
22471;DHT22;11402;51.374;6.594;2022-09-21T17:16:56;14.90;99.90
22471;DHT22;11402;51.374;6.594;2022-09-21T17:19:22;14.90;99.90
22471;DHT22;11402;51.374;6.594;2022-09-21T17:36:42;14.20;99.90
22471;DHT22;11402;51.374;6.594;2022-09-21T17:39:08;14.20;99.90
22471;DHT22;11402;51.374;6.594;2022-09-21T17:41:39;14.10;99.90
22471;DHT22;11402;51.374;6.594;2022-09-21T18:18:06;12.90;99.90
22471;DHT22;11402;51.374;6.594;2022-09-21T18:20:40;13.10;99.90
22471;DHT22;11402;51.374;6.594;2022-09-21T18:23:31;12.90;99.90
22471;DHT22;11402;51.374;6.594;2022-09-21T18:28:37;12.70;99.90
22471;DHT22;11402;51.374;6.594;2022-09-21T18:31:30;12.60;99.90
22471;DHT22;11402;51.374;6.594;2022-09-21T18:37:20;12.70;99.90
22471;DHT22;11402;51.374;6.594;2022-09-21T18:43:01;12.50;99.90
22471;DHT22;11402;51.374;6.594;2022-09-21T18:45:36;12.70;99.90
22471;DHT22;11402;51.374;6.594;2022-09-21T18:50:48;12.10;99.90
22471;DHT22;11402;51.374;6.594;2022-09-21T18:53:33;12.10;99.90
22471;DHT22;11402;51.374;6.594;2022-09-21T18:56:04;11.90;99.90
22471;DHT22;11402;51.374;6.594;2022-09-21T18:58:32;12.00;99.90
22471;DHT22;11402;51.374;6.594;2022-09-21T19:00:58;12.20;99.90
22471;DHT22;11402;51.374;6.594;2022-09-21T19:19:43;11.80;99.90
22471;DHT22;11402;51.374;6.594;2022-09-21T19:22:17;11.60;99.90
22471;DHT22;11402;51.374;6.594;2022-09-21T19:25:14;11.80;99.90
22471;DHT22;11402;51.374;6.594;2022-09-21T19:27:47;12.00;99.90
22471;DHT22;11402;51.374;6.594;2022-09-21T19:30:15;11.90;99.90
22471;DHT22;11402;51.374;6.594;2022-09-21T19:40:18;12.70;99.90
22471;DHT22;11402;51.374;6.594;2022-09-21T19:43:09;11.70;99.90
22471;DHT22;11402;51.374;6.594;2022-09-21T19:48:46;11.30;99.90
22471;DHT22;11402;51.374;6.594;2022-09-21T19:51:19;11.30;99.90
22471;DHT22;11402;51.374;6.594;2022-09-21T19:53:53;11.40;99.90
22471;DHT22;11402;51.374;6.594;2022-09-21T19:56:46;11.50;99.90
22471;DHT22;11402;51.374;6.594;2022-09-21T19:59:31;11.40;99.90
22471;DHT22;11402;51.374;6.594;2022-09-21T20:02:29;11.50;99.90
22471;DHT22;11402;51.374;6.594;2022-09-21T20:05:11;11.20;99.90
22471;DHT22;11402;51.374;6.594;2022-09-21T20:07:50;11.00;99.90
22471;DHT22;11402;51.374;6.594;2022-09-21T20:15:21;11.10;99.90
22471;DHT22;11402;51.374;6.594;2022-09-21T20:17:59;11.10;99.90
22471;DHT22;11402;51.374;6.594;2022-09-21T20:20:27;11.10;99.90
22471;DHT22;11402;51.374;6.594;2022-09-21T20:22:54;11.10;99.90
22471;DHT22;11402;51.374;6.594;2022-09-21T20:25:24;11.20;99.90
22471;DHT22;11402;51.374;6.594;2022-09-21T20:27:52;11.20;99.90
22471;DHT22;11402;51.374;6.594;2022-09-21T20:30:25;11.00;99.90
22471;DHT22;11402;51.374;6.594;2022-09-21T20:32:53;11.00;99.90
22471;DHT22;11402;51.374;6.594;2022-09-21T20:37:48;10.80;99.90
22471;DHT22;11402;51.374;6.594;2022-09-21T20:40:16;10.90;99.90
22471;DHT22;11402;51.374;6.594;2022-09-21T20:42:42;10.80;99.90
22471;DHT22;11402;51.374;6.594;2022-09-21T20:45:10;10.80;99.90
22471;DHT22;11402;51.374;6.594;2022-09-21T20:47:36;10.80;99.90
22471;DHT22;11402;51.374;6.594;2022-09-21T20:50:02;10.80;99.90
22471;DHT22;11402;51.374;6.594;2022-09-21T20:52:28;10.70;99.90
22471;DHT22;11402;51.374;6.594;2022-09-21T20:54:54;10.60;99.90
22471;DHT22;11402;51.374;6.594;2022-09-21T20:57:19;10.70;99.90
22471;DHT22;11402;51.374;6.594;2022-09-21T20:59:45;10.60;99.90
22471;DHT22;11402;51.374;6.594;2022-09-21T21:04:39;10.50;99.90
22471;DHT22;11402;51.374;6.594;2022-09-21T21:07:05;10.60;99.90
22471;DHT22;11402;51.374;6.594;2022-09-21T21:09:31;10.60;99.90
22471;DHT22;11402;51.374;6.594;2022-09-21T21:11:59;10.30;99.90
22471;DHT22;11402;51.374;6.594;2022-09-21T21:16:51;10.10;99.90
22471;DHT22;11402;51.374;6.594;2022-09-21T21:19:17;10.60;99.90
22471;DHT22;11402;51.374;6.594;2022-09-21T21:21:43;10.30;99.90
22471;DHT22;11402;51.374;6.594;2022-09-21T21:24:09;10.20;99.90
22471;DHT22;11402;51.374;6.594;2022-09-21T21:29:20;10.70;99.90
22471;DHT22;11402;51.374;6.594;2022-09-21T21:31:47;10.20;99.90
22471;DHT22;11402;51.374;6.594;2022-09-21T21:34:13;10.20;99.90
22471;DHT22;11402;51.374;6.594;2022-09-21T21:36:39;10.20;99.90
22471;DHT22;11402;51.374;6.594;2022-09-21T21:41:32;10.00;99.90
22471;DHT22;11402;51.374;6.594;2022-09-21T21:43:58;10.00;99.90
22471;DHT22;11402;51.374;6.594;2022-09-21T21:46:24;10.00;99.90
22471;DHT22;11402;51.374;6.594;2022-09-21T21:48:50;10.10;99.90
22471;DHT22;11402;51.374;6.594;2022-09-21T21:51:16;9.90;99.90
22471;DHT22;11402;51.374;6.594;2022-09-21T21:53:42;10.00;99.90
22471;DHT22;11402;51.374;6.594;2022-09-21T21:58:37;9.90;99.90
22471;DHT22;11402;51.374;6.594;2022-09-21T22:03:35;9.90;99.90
22471;DHT22;11402;51.374;6.594;2022-09-21T22:06:06;9.90;99.90
22471;DHT22;11402;51.374;6.594;2022-09-21T22:10:58;9.60;99.90
22471;DHT22;11402;51.374;6.594;2022-09-21T22:13:25;9.60;99.90
22471;DHT22;11402;51.374;6.594;2022-09-21T22:16:09;9.60;99.90
22471;DHT22;11402;51.374;6.594;2022-09-21T22:18:37;9.50;99.90
22471;DHT22;11402;51.374;6.594;2022-09-21T22:21:14;9.60;99.90
22471;DHT22;11402;51.374;6.594;2022-09-21T22:23:40;9.60;99.90
22471;DHT22;11402;51.374;6.594;2022-09-21T22:26:10;9.60;99.90
22471;DHT22;11402;51.374;6.594;2022-09-21T22:28:37;9.60;99.90
22471;DHT22;11402;51.374;6.594;2022-09-21T22:31:08;9.50;99.90
22471;DHT22;11402;51.374;6.594;2022-09-21T22:33:34;9.50;99.90
22471;DHT22;11402;51.374;6.594;2022-09-21T22:36:10;9.40;99.90
22471;DHT22;11402;51.374;6.594;2022-09-21T22:38:36;9.30;99.90
22471;DHT22;11402;51.374;6.594;2022-09-21T22:41:30;9.30;99.90
22471;DHT22;11402;51.374;6.594;2022-09-21T22:43:58;9.30;99.90
22471;DHT22;11402;51.374;6.594;2022-09-21T22:46:25;9.30;99.90
22471;DHT22;11402;51.374;6.594;2022-09-21T22:48:51;9.20;99.90
22471;DHT22;11402;51.374;6.594;2022-09-21T22:51:18;9.30;99.90
22471;DHT22;11402;51.374;6.594;2022-09-21T22:53:45;9.30;99.90
22471;DHT22;11402;51.374;6.594;2022-09-21T22:56:14;9.10;99.90
22471;DHT22;11402;51.374;6.594;2022-09-21T22:58:43;9.20;99.90
22471;DHT22;11402;51.374;6.594;2022-09-21T23:01:18;9.20;99.90
22471;DHT22;11402;51.374;6.594;2022-09-21T23:03:47;9.20;99.90
22471;DHT22;11402;51.374;6.594;2022-09-21T23:06:15;9.10;99.90
22471;DHT22;11402;51.374;6.594;2022-09-21T23:08:41;9.10;99.90
22471;DHT22;11402;51.374;6.594;2022-09-21T23:11:26;9.10;99.90
22471;DHT22;11402;51.374;6.594;2022-09-21T23:13:53;9.00;99.90
22471;DHT22;11402;51.374;6.594;2022-09-21T23:16:18;9.10;99.90
22471;DHT22;11402;51.374;6.594;2022-09-21T23:18:46;9.00;99.90
22471;DHT22;11402;51.374;6.594;2022-09-21T23:21:14;9.00;99.90
22471;DHT22;11402;51.374;6.594;2022-09-21T23:23:41;9.00;99.90
22471;DHT22;11402;51.374;6.594;2022-09-21T23:28:38;9.00;99.90
22471;DHT22;11402;51.374;6.594;2022-09-21T23:31:06;9.00;99.90
22471;DHT22;11402;51.374;6.594;2022-09-21T23:33:34;9.00;99.90
22471;DHT22;11402;51.374;6.594;2022-09-21T23:36:00;9.00;99.90
22471;DHT22;11402;51.374;6.594;2022-09-21T23:38:26;9.00;99.90
22471;DHT22;11402;51.374;6.594;2022-09-21T23:41:06;8.90;99.90
22471;DHT22;11402;51.374;6.594;2022-09-21T23:43:33;8.90;99.90
22471;DHT22;11402;51.374;6.594;2022-09-21T23:45:59;8.90;99.90
22471;DHT22;11402;51.374;6.594;2022-09-21T23:48:25;8.80;99.90
22471;DHT22;11402;51.374;6.594;2022-09-21T23:50:52;8.80;99.90
22471;DHT22;11402;51.374;6.594;2022-09-21T23:53:18;8.80;99.90
22471;DHT22;11402;51.374;6.594;2022-09-21T23:55:44;8.80;99.90
22471;DHT22;11402;51.374;6.594;2022-09-21T23:58:10;8.80;99.90
